createdAt,value
2023-01-19T00:23:52.193Z,84.69
2023-01-19T00:53:52.198Z,85.07
2023-01-19T01:23:52.197Z,85.25
2023-01-19T01:53:52.210Z,85.05
2023-01-19T02:23:52.225Z,84.88
2023-01-19T02:53:52.202Z,85.01
2023-01-19T03:23:52.206Z,84.79
2023-01-19T03:53:52.199Z,84.8
2023-01-19T04:23:52.216Z,85
2023-01-19T04:53:52.221Z,84.86
2023-01-19T05:23:52.247Z,84.92
2023-01-19T05:53:52.233Z,85.19
2023-01-19T06:23:52.260Z,84.82
2023-01-19T06:53:52.246Z,84.82
2023-01-19T07:23:52.249Z,84.89
2023-01-19T07:53:52.242Z,84.77
2023-01-19T08:23:52.363Z,84.82
2023-01-19T08:53:52.250Z,85.46
2023-01-19T09:23:52.253Z,85.3
2023-01-19T09:53:52.398Z,84.77
2023-01-19T10:23:52.306Z,84.72
2023-01-19T10:53:52.250Z,85.09
2023-01-19T11:23:52.261Z,84.99
2023-01-19T11:53:52.270Z,85.16
2023-01-19T12:23:52.284Z,84.81
2023-01-19T12:53:52.290Z,84.4
2023-01-19T13:23:52.325Z,84.17
2023-01-19T13:53:52.309Z,83.55
2023-01-19T14:23:52.301Z,82.92
2023-01-19T14:53:52.341Z,82.83
2023-01-19T15:23:52.323Z,82.34
2023-01-19T15:53:52.336Z,82.46
2023-01-19T16:23:52.322Z,83.04
2023-01-19T16:53:52.327Z,83.24
2023-01-19T17:23:52.340Z,82.86
2023-01-19T17:53:52.336Z,82.99
2023-01-19T18:23:52.339Z,82.77
2023-01-19T18:53:52.347Z,82.85
2023-01-19T19:23:52.367Z,83.03
2023-01-19T19:53:52.351Z,82.59
2023-01-19T20:23:52.353Z,82.9
2023-01-19T20:53:52.353Z,82.99
2023-01-19T21:23:52.364Z,82.69
2023-01-19T21:53:52.394Z,82.74
2023-01-19T22:23:52.369Z,82.89
2023-01-19T22:53:52.393Z,82.9
2023-01-19T23:23:52.381Z,82.64
2023-01-19T23:53:52.396Z,82.71
